sensor_id;sensor_type;location;lat;lon;timestamp;temperature;humidity
68766;DHT22;55756;45.582;11.484;2023-12-14T00:02:07;14.20;67.50
68766;DHT22;55756;45.582;11.484;2023-12-14T00:04:32;14.20;67.70
68766;DHT22;55756;45.582;11.484;2023-12-14T00:06:58;14.10;67.90
68766;DHT22;55756;45.582;11.484;2023-12-14T00:09:24;14.20;67.90
68766;DHT22;55756;45.582;11.484;2023-12-14T00:11:49;14.10;67.70
68766;DHT22;55756;45.582;11.484;2023-12-14T00:14:15;14.10;67.60
68766;DHT22;55756;45.582;11.484;2023-12-14T00:16:41;14.10;67.40
68766;DHT22;55756;45.582;11.484;2023-12-14T00:19:06;14.10;67.20
68766;DHT22;55756;45.582;11.484;2023-12-14T00:21:32;14.10;67.10
68766;DHT22;55756;45.582;11.484;2023-12-14T00:23:58;14.10;67.00
68766;DHT22;55756;45.582;11.484;2023-12-14T00:26:24;14.10;66.90
68766;DHT22;55756;45.582;11.484;2023-12-14T00:28:49;14.10;67.00
68766;DHT22;55756;45.582;11.484;2023-12-14T00:31:15;14.10;66.90
68766;DHT22;55756;45.582;11.484;2023-12-14T00:33:42;14.20;67.00
68766;DHT22;55756;45.582;11.484;2023-12-14T00:36:08;14.10;67.00
68766;DHT22;55756;45.582;11.484;2023-12-14T00:38:34;14.20;66.80
68766;DHT22;55756;45.582;11.484;2023-12-14T00:41:00;14.10;67.10
68766;DHT22;55756;45.582;11.484;2023-12-14T00:43:25;14.10;67.20
68766;DHT22;55756;45.582;11.484;2023-12-14T00:45:51;14.00;67.20
68766;DHT22;55756;45.582;11.484;2023-12-14T00:48:18;14.00;67.40
68766;DHT22;55756;45.582;11.484;2023-12-14T00:50:43;14.00;67.30
68766;DHT22;55756;45.582;11.484;2023-12-14T00:53:09;14.00;67.10
68766;DHT22;55756;45.582;11.484;2023-12-14T00:55:35;14.00;67.10
68766;DHT22;55756;45.582;11.484;2023-12-14T00:58:00;14.00;66.90
68766;DHT22;55756;45.582;11.484;2023-12-14T01:00:26;14.00;67.10
68766;DHT22;55756;45.582;11.484;2023-12-14T01:02:52;14.00;67.00
68766;DHT22;55756;45.582;11.484;2023-12-14T01:05:18;14.00;67.00
68766;DHT22;55756;45.582;11.484;2023-12-14T01:07:43;14.00;67.10
68766;DHT22;55756;45.582;11.484;2023-12-14T01:10:09;14.00;67.00
68766;DHT22;55756;45.582;11.484;2023-12-14T01:12:35;14.00;66.80
68766;DHT22;55756;45.582;11.484;2023-12-14T01:15:01;14.00;66.70
68766;DHT22;55756;45.582;11.484;2023-12-14T01:17:26;14.00;66.80
68766;DHT22;55756;45.582;11.484;2023-12-14T01:19:54;14.00;66.60
68766;DHT22;55756;45.582;11.484;2023-12-14T01:22:20;13.90;66.40
68766;DHT22;55756;45.582;11.484;2023-12-14T01:24:45;14.00;66.30
68766;DHT22;55756;45.582;11.484;2023-12-14T01:27:11;14.00;66.20
68766;DHT22;55756;45.582;11.484;2023-12-14T01:29:39;14.00;66.10
68766;DHT22;55756;45.582;11.484;2023-12-14T01:32:05;13.90;66.00
68766;DHT22;55756;45.582;11.484;2023-12-14T01:34:31;13.90;65.90
68766;DHT22;55756;45.582;11.484;2023-12-14T01:36:57;13.90;66.00
68766;DHT22;55756;45.582;11.484;2023-12-14T01:39:22;13.90;65.90
68766;DHT22;55756;45.582;11.484;2023-12-14T01:41:48;13.90;65.70
68766;DHT22;55756;45.582;11.484;2023-12-14T01:44:14;13.90;65.80
68766;DHT22;55756;45.582;11.484;2023-12-14T01:46:40;13.90;66.10
68766;DHT22;55756;45.582;11.484;2023-12-14T01:49:06;13.90;66.10
68766;DHT22;55756;45.582;11.484;2023-12-14T01:51:31;13.90;66.00
68766;DHT22;55756;45.582;11.484;2023-12-14T01:53:59;13.90;65.80
68766;DHT22;55756;45.582;11.484;2023-12-14T01:56:25;13.90;66.10
68766;DHT22;55756;45.582;11.484;2023-12-14T01:58:50;13.90;65.90
68766;DHT22;55756;45.582;11.484;2023-12-14T02:04:01;13.90;65.80
68766;DHT22;55756;45.582;11.484;2023-12-14T02:06:26;13.90;65.70
68766;DHT22;55756;45.582;11.484;2023-12-14T02:08:53;13.90;65.90
68766;DHT22;55756;45.582;11.484;2023-12-14T02:11:18;13.90;66.00
68766;DHT22;55756;45.582;11.484;2023-12-14T02:13:44;13.90;66.10
68766;DHT22;55756;45.582;11.484;2023-12-14T02:16:10;13.80;66.00
68766;DHT22;55756;45.582;11.484;2023-12-14T02:18:37;13.80;66.00
68766;DHT22;55756;45.582;11.484;2023-12-14T02:21:03;13.80;66.00
68766;DHT22;55756;45.582;11.484;2023-12-14T02:23:28;13.80;66.00
68766;DHT22;55756;45.582;11.484;2023-12-14T02:25:55;13.80;66.10
68766;DHT22;55756;45.582;11.484;2023-12-14T02:28:21;13.80;65.80
68766;DHT22;55756;45.582;11.484;2023-12-14T02:30:47;13.80;65.50
68766;DHT22;55756;45.582;11.484;2023-12-14T02:33:12;13.80;65.60
68766;DHT22;55756;45.582;11.484;2023-12-14T02:35:38;13.80;65.50
68766;DHT22;55756;45.582;11.484;2023-12-14T02:38:04;13.80;65.60
68766;DHT22;55756;45.582;11.484;2023-12-14T02:40:30;13.80;65.50
68766;DHT22;55756;45.582;11.484;2023-12-14T02:42:55;13.70;65.40
68766;DHT22;55756;45.582;11.484;2023-12-14T02:45:21;13.80;65.10
68766;DHT22;55756;45.582;11.484;2023-12-14T02:47:47;13.80;64.90
68766;DHT22;55756;45.582;11.484;2023-12-14T02:50:14;13.80;64.80
68766;DHT22;55756;45.582;11.484;2023-12-14T02:52:39;13.70;65.00
68766;DHT22;55756;45.582;11.484;2023-12-14T02:55:05;13.70;65.10
68766;DHT22;55756;45.582;11.484;2023-12-14T02:57:31;13.70;65.40
68766;DHT22;55756;45.582;11.484;2023-12-14T02:59:57;13.60;65.20
68766;DHT22;55756;45.582;11.484;2023-12-14T03:02:22;13.60;65.30
68766;DHT22;55756;45.582;11.484;2023-12-14T03:04:48;13.60;65.30
68766;DHT22;55756;45.582;11.484;2023-12-14T03:07:14;13.60;65.10
68766;DHT22;55756;45.582;11.484;2023-12-14T03:09:40;13.60;64.90
68766;DHT22;55756;45.582;11.484;2023-12-14T03:12:10;13.60;64.70
68766;DHT22;55756;45.582;11.484;2023-12-14T03:14:36;13.60;64.50
68766;DHT22;55756;45.582;11.484;2023-12-14T03:17:02;13.60;64.50
68766;DHT22;55756;45.582;11.484;2023-12-14T03:19:28;13.60;64.50
68766;DHT22;55756;45.582;11.484;2023-12-14T03:21:54;13.60;64.50
68766;DHT22;55756;45.582;11.484;2023-12-14T03:24:20;13.60;64.60
68766;DHT22;55756;45.582;11.484;2023-12-14T03:26:46;13.50;64.80
68766;DHT22;55756;45.582;11.484;2023-12-14T03:29:12;13.50;65.10
68766;DHT22;55756;45.582;11.484;2023-12-14T03:31:38;13.40;65.20
68766;DHT22;55756;45.582;11.484;2023-12-14T03:34:05;13.40;65.30
68766;DHT22;55756;45.582;11.484;2023-12-14T03:36:31;13.50;65.40
68766;DHT22;55756;45.582;11.484;2023-12-14T03:38:56;13.50;65.40
68766;DHT22;55756;45.582;11.484;2023-12-14T03:41:22;13.50;65.50
68766;DHT22;55756;45.582;11.484;2023-12-14T03:43:48;13.50;65.50
68766;DHT22;55756;45.582;11.484;2023-12-14T03:46:13;13.50;65.70
68766;DHT22;55756;45.582;11.484;2023-12-14T03:48:39;13.50;65.80
68766;DHT22;55756;45.582;11.484;2023-12-14T03:51:06;13.50;65.50
68766;DHT22;55756;45.582;11.484;2023-12-14T03:53:32;13.50;65.60
68766;DHT22;55756;45.582;11.484;2023-12-14T03:56:00;13.50;65.70
68766;DHT22;55756;45.582;11.484;2023-12-14T03:58:26;13.50;65.70
68766;DHT22;55756;45.582;11.484;2023-12-14T04:00:52;13.40;66.20
68766;DHT22;55756;45.582;11.484;2023-12-14T04:03:18;13.30;65.70
68766;DHT22;55756;45.582;11.484;2023-12-14T04:05:44;13.30;65.40
68766;DHT22;55756;45.582;11.484;2023-12-14T04:08:10;13.20;65.00
68766;DHT22;55756;45.582;11.484;2023-12-14T04:10:36;13.20;64.40
68766;DHT22;55756;45.582;11.484;2023-12-14T04:13:02;13.10;63.90
68766;DHT22;55756;45.582;11.484;2023-12-14T04:15:27;13.10;63.50
68766;DHT22;55756;45.582;11.484;2023-12-14T04:17:53;13.20;63.10
68766;DHT22;55756;45.582;11.484;2023-12-14T04:20:19;13.10;63.10
68766;DHT22;55756;45.582;11.484;2023-12-14T04:22:45;13.10;62.80
68766;DHT22;55756;45.582;11.484;2023-12-14T04:25:11;13.00;62.60
68766;DHT22;55756;45.582;11.484;2023-12-14T04:27:37;13.00;62.60
68766;DHT22;55756;45.582;11.484;2023-12-14T04:30:03;13.10;62.20
68766;DHT22;55756;45.582;11.484;2023-12-14T04:32:30;13.10;62.10
68766;DHT22;55756;45.582;11.484;2023-12-14T04:34:55;13.10;61.90
68766;DHT22;55756;45.582;11.484;2023-12-14T04:37:21;13.10;62.00
68766;DHT22;55756;45.582;11.484;2023-12-14T04:39:47;13.00;62.50
68766;DHT22;55756;45.582;11.484;2023-12-14T04:42:13;13.00;62.80
68766;DHT22;55756;45.582;11.484;2023-12-14T04:44:38;13.00;63.00
68766;DHT22;55756;45.582;11.484;2023-12-14T04:47:04;13.00;63.10
68766;DHT22;55756;45.582;11.484;2023-12-14T04:49:30;13.00;63.70
68766;DHT22;55756;45.582;11.484;2023-12-14T04:51:56;13.00;64.00
68766;DHT22;55756;45.582;11.484;2023-12-14T04:54:21;12.90;63.70
68766;DHT22;55756;45.582;11.484;2023-12-14T04:56:47;12.90;63.30
68766;DHT22;55756;45.582;11.484;2023-12-14T04:59:13;12.80;63.10
68766;DHT22;55756;45.582;11.484;2023-12-14T05:01:39;12.80;63.00
68766;DHT22;55756;45.582;11.484;2023-12-14T05:04:04;12.90;63.40
68766;DHT22;55756;45.582;11.484;2023-12-14T05:06:30;12.90;63.60
68766;DHT22;55756;45.582;11.484;2023-12-14T05:08:58;12.90;63.70
68766;DHT22;55756;45.582;11.484;2023-12-14T05:11:24;12.90;63.80
68766;DHT22;55756;45.582;11.484;2023-12-14T05:13:50;12.90;64.20
68766;DHT22;55756;45.582;11.484;2023-12-14T05:16:16;12.90;64.40
68766;DHT22;55756;45.582;11.484;2023-12-14T05:18:42;12.90;64.50
68766;DHT22;55756;45.582;11.484;2023-12-14T05:21:07;12.90;64.70
68766;DHT22;55756;45.582;11.484;2023-12-14T05:23:33;12.90;64.60
68766;DHT22;55756;45.582;11.484;2023-12-14T05:25:59;12.90;64.60
68766;DHT22;55756;45.582;11.484;2023-12-14T05:28:25;13.00;64.50
68766;DHT22;55756;45.582;11.484;2023-12-14T05:30:51;13.00;64.70
68766;DHT22;55756;45.582;11.484;2023-12-14T05:33:16;13.00;64.70
68766;DHT22;55756;45.582;11.484;2023-12-14T05:35:42;13.00;64.80
68766;DHT22;55756;45.582;11.484;2023-12-14T05:38:08;13.00;64.80
68766;DHT22;55756;45.582;11.484;2023-12-14T05:40:33;13.00;64.90
68766;DHT22;55756;45.582;11.484;2023-12-14T05:42:59;13.00;65.00
68766;DHT22;55756;45.582;11.484;2023-12-14T05:45:25;13.10;65.30
68766;DHT22;55756;45.582;11.484;2023-12-14T05:47:51;13.00;65.30
68766;DHT22;55756;45.582;11.484;2023-12-14T05:50:17;13.10;65.60
68766;DHT22;55756;45.582;11.484;2023-12-14T05:52:42;13.10;65.70
68766;DHT22;55756;45.582;11.484;2023-12-14T05:55:09;13.00;65.90
68766;DHT22;55756;45.582;11.484;2023-12-14T05:57:36;13.00;66.10
68766;DHT22;55756;45.582;11.484;2023-12-14T06:00:03;13.10;66.20
68766;DHT22;55756;45.582;11.484;2023-12-14T06:02:31;13.10;66.40
68766;DHT22;55756;45.582;11.484;2023-12-14T06:04:57;13.10;66.40
68766;DHT22;55756;45.582;11.484;2023-12-14T06:07:24;13.10;66.50
68766;DHT22;55756;45.582;11.484;2023-12-14T06:09:49;13.10;66.50
68766;DHT22;55756;45.582;11.484;2023-12-14T06:12:15;13.10;66.60
68766;DHT22;55756;45.582;11.484;2023-12-14T06:14:41;13.10;66.50
68766;DHT22;55756;45.582;11.484;2023-12-14T06:17:06;13.10;66.80
68766;DHT22;55756;45.582;11.484;2023-12-14T06:19:32;13.20;67.20
68766;DHT22;55756;45.582;11.484;2023-12-14T06:21:58;13.10;67.20
68766;DHT22;55756;45.582;11.484;2023-12-14T06:24:24;13.20;67.30
68766;DHT22;55756;45.582;11.484;2023-12-14T06:26:49;13.10;67.30
68766;DHT22;55756;45.582;11.484;2023-12-14T06:29:15;13.20;67.00
68766;DHT22;55756;45.582;11.484;2023-12-14T06:31:41;13.10;66.90
68766;DHT22;55756;45.582;11.484;2023-12-14T06:34:07;13.10;66.50
68766;DHT22;55756;45.582;11.484;2023-12-14T06:36:33;13.00;66.20
68766;DHT22;55756;45.582;11.484;2023-12-14T06:39:00;12.90;65.60
68766;DHT22;55756;45.582;11.484;2023-12-14T06:41:27;12.90;65.20
68766;DHT22;55756;45.582;11.484;2023-12-14T06:43:54;12.80;65.20
68766;DHT22;55756;45.582;11.484;2023-12-14T06:46:20;12.80;65.30
68766;DHT22;55756;45.582;11.484;2023-12-14T06:48:46;12.80;65.30
68766;DHT22;55756;45.582;11.484;2023-12-14T06:51:13;12.80;64.90
68766;DHT22;55756;45.582;11.484;2023-12-14T06:53:43;12.80;64.60
68766;DHT22;55756;45.582;11.484;2023-12-14T06:56:09;12.70;64.50
68766;DHT22;55756;45.582;11.484;2023-12-14T06:58:45;12.70;64.70
68766;DHT22;55756;45.582;11.484;2023-12-14T07:01:15;12.70;64.40
68766;DHT22;55756;45.582;11.484;2023-12-14T07:03:41;12.70;64.90
68766;DHT22;55756;45.582;11.484;2023-12-14T07:06:15;12.60;65.70
68766;DHT22;55756;45.582;11.484;2023-12-14T07:08:41;12.50;65.30
68766;DHT22;55756;45.582;11.484;2023-12-14T07:11:11;12.50;65.60
68766;DHT22;55756;45.582;11.484;2023-12-14T07:13:37;12.50;65.90
68766;DHT22;55756;45.582;11.484;2023-12-14T07:16:07;12.50;65.70
68766;DHT22;55756;45.582;11.484;2023-12-14T07:18:41;12.50;64.50
68766;DHT22;55756;45.582;11.484;2023-12-14T07:21:08;12.50;63.80
68766;DHT22;55756;45.582;11.484;2023-12-14T07:23:34;12.50;63.80
68766;DHT22;55756;45.582;11.484;2023-12-14T07:26:00;12.50;63.50
68766;DHT22;55756;45.582;11.484;2023-12-14T07:28:26;12.40;65.90
68766;DHT22;55756;45.582;11.484;2023-12-14T07:30:52;12.40;66.40
68766;DHT22;55756;45.582;11.484;2023-12-14T07:33:18;12.50;66.40
68766;DHT22;55756;45.582;11.484;2023-12-14T07:35:43;12.40;66.80
68766;DHT22;55756;45.582;11.484;2023-12-14T07:38:10;12.40;66.60
68766;DHT22;55756;45.582;11.484;2023-12-14T07:40:35;12.40;66.60
68766;DHT22;55756;45.582;11.484;2023-12-14T07:43:01;12.50;66.10
68766;DHT22;55756;45.582;11.484;2023-12-14T07:45:27;12.50;65.50
68766;DHT22;55756;45.582;11.484;2023-12-14T07:47:53;12.40;65.80
68766;DHT22;55756;45.582;11.484;2023-12-14T07:50:19;12.50;65.40
68766;DHT22;55756;45.582;11.484;2023-12-14T07:52:50;12.50;65.60
68766;DHT22;55756;45.582;11.484;2023-12-14T07:55:16;12.50;65.70
68766;DHT22;55756;45.582;11.484;2023-12-14T07:57:44;12.50;65.70
68766;DHT22;55756;45.582;11.484;2023-12-14T08:00:10;12.40;67.00
68766;DHT22;55756;45.582;11.484;2023-12-14T08:02:37;12.40;67.40
68766;DHT22;55756;45.582;11.484;2023-12-14T08:05:04;12.40;66.10
68766;DHT22;55756;45.582;11.484;2023-12-14T08:07:31;12.40;66.00
68766;DHT22;55756;45.582;11.484;2023-12-14T08:09:57;12.50;65.80
68766;DHT22;55756;45.582;11.484;2023-12-14T08:12:23;12.50;65.80
68766;DHT22;55756;45.582;11.484;2023-12-14T08:14:50;12.40;65.90
68766;DHT22;55756;45.582;11.484;2023-12-14T08:17:16;12.40;65.70
68766;DHT22;55756;45.582;11.484;2023-12-14T08:19:42;12.40;66.20
68766;DHT22;55756;45.582;11.484;2023-12-14T08:22:08;12.40;70.20
68766;DHT22;55756;45.582;11.484;2023-12-14T08:24:37;12.40;70.60
68766;DHT22;55756;45.582;11.484;2023-12-14T08:27:03;12.40;70.40
68766;DHT22;55756;45.582;11.484;2023-12-14T08:29:29;12.40;69.20
68766;DHT22;55756;45.582;11.484;2023-12-14T08:31:54;12.40;68.00
68766;DHT22;55756;45.582;11.484;2023-12-14T08:34:26;12.40;67.80
68766;DHT22;55756;45.582;11.484;2023-12-14T08:36:51;12.40;68.10
68766;DHT22;55756;45.582;11.484;2023-12-14T08:39:17;12.40;68.00
68766;DHT22;55756;45.582;11.484;2023-12-14T08:41:45;12.50;67.50
68766;DHT22;55756;45.582;11.484;2023-12-14T08:44:11;12.50;67.00
68766;DHT22;55756;45.582;11.484;2023-12-14T08:46:41;12.50;66.60
68766;DHT22;55756;45.582;11.484;2023-12-14T08:49:07;12.60;66.40
68766;DHT22;55756;45.582;11.484;2023-12-14T08:51:33;12.60;66.10
68766;DHT22;55756;45.582;11.484;2023-12-14T08:53:59;12.60;66.00
68766;DHT22;55756;45.582;11.484;2023-12-14T08:56:24;12.60;65.90
68766;DHT22;55756;45.582;11.484;2023-12-14T08:58:50;12.60;66.10
68766;DHT22;55756;45.582;11.484;2023-12-14T09:01:20;12.60;66.70
68766;DHT22;55756;45.582;11.484;2023-12-14T09:03:49;12.60;66.70
68766;DHT22;55756;45.582;11.484;2023-12-14T09:06:16;12.60;66.80
68766;DHT22;55756;45.582;11.484;2023-12-14T09:08:43;12.70;67.00
68766;DHT22;55756;45.582;11.484;2023-12-14T09:11:09;12.70;67.00
68766;DHT22;55756;45.582;11.484;2023-12-14T09:13:34;12.70;67.40
68766;DHT22;55756;45.582;11.484;2023-12-14T09:16:03;12.70;66.20
68766;DHT22;55756;45.582;11.484;2023-12-14T09:18:29;12.60;67.90
68766;DHT22;55756;45.582;11.484;2023-12-14T09:20:54;12.60;68.70
68766;DHT22;55756;45.582;11.484;2023-12-14T09:23:20;12.70;68.80
68766;DHT22;55756;45.582;11.484;2023-12-14T09:25:46;12.70;68.50
68766;DHT22;55756;45.582;11.484;2023-12-14T09:28:12;12.70;68.60
68766;DHT22;55756;45.582;11.484;2023-12-14T09:30:37;12.80;68.40
68766;DHT22;55756;45.582;11.484;2023-12-14T09:33:03;12.80;68.40
68766;DHT22;55756;45.582;11.484;2023-12-14T09:35:29;12.90;68.40
68766;DHT22;55756;45.582;11.484;2023-12-14T09:37:55;12.90;68.40
68766;DHT22;55756;45.582;11.484;2023-12-14T09:40:22;12.90;68.60
68766;DHT22;55756;45.582;11.484;2023-12-14T09:42:48;12.90;68.90
68766;DHT22;55756;45.582;11.484;2023-12-14T09:45:16;13.00;68.80
68766;DHT22;55756;45.582;11.484;2023-12-14T09:47:42;13.10;68.90
68766;DHT22;55756;45.582;11.484;2023-12-14T09:50:13;13.10;69.10
68766;DHT22;55756;45.582;11.484;2023-12-14T09:52:40;13.10;69.00
68766;DHT22;55756;45.582;11.484;2023-12-14T09:55:11;13.10;69.30
68766;DHT22;55756;45.582;11.484;2023-12-14T09:57:39;13.10;69.30
68766;DHT22;55756;45.582;11.484;2023-12-14T10:00:06;13.10;69.20
68766;DHT22;55756;45.582;11.484;2023-12-14T10:02:37;13.20;69.10
68766;DHT22;55756;45.582;11.484;2023-12-14T10:05:03;13.20;69.00
68766;DHT22;55756;45.582;11.484;2023-12-14T10:07:31;13.30;69.20
68766;DHT22;55756;45.582;11.484;2023-12-14T10:10:10;13.30;69.50
68766;DHT22;55756;45.582;11.484;2023-12-14T10:12:51;13.30;69.50
68766;DHT22;55756;45.582;11.484;2023-12-14T10:15:18;13.30;69.50
68766;DHT22;55756;45.582;11.484;2023-12-14T10:17:44;13.40;69.70
68766;DHT22;55756;45.582;11.484;2023-12-14T10:20:21;13.40;69.90
68766;DHT22;55756;45.582;11.484;2023-12-14T10:22:53;13.40;70.00
68766;DHT22;55756;45.582;11.484;2023-12-14T10:25:19;13.40;69.80
68766;DHT22;55756;45.582;11.484;2023-12-14T10:27:50;13.50;69.90
68766;DHT22;55756;45.582;11.484;2023-12-14T10:30:18;13.50;70.20
68766;DHT22;55756;45.582;11.484;2023-12-14T10:32:47;13.50;70.50
68766;DHT22;55756;45.582;11.484;2023-12-14T10:35:14;13.60;70.60
68766;DHT22;55756;45.582;11.484;2023-12-14T10:37:42;13.60;70.80
68766;DHT22;55756;45.582;11.484;2023-12-14T10:40:13;13.60;70.70
68766;DHT22;55756;45.582;11.484;2023-12-14T10:42:43;13.60;70.40
68766;DHT22;55756;45.582;11.484;2023-12-14T10:45:12;13.60;70.50
68766;DHT22;55756;45.582;11.484;2023-12-14T10:47:39;13.60;70.40
68766;DHT22;55756;45.582;11.484;2023-12-14T10:50:05;13.60;70.40
68766;DHT22;55756;45.582;11.484;2023-12-14T10:52:32;13.60;70.50
68766;DHT22;55756;45.582;11.484;2023-12-14T10:55:09;13.70;71.40
68766;DHT22;55756;45.582;11.484;2023-12-14T10:57:36;13.70;72.70
68766;DHT22;55756;45.582;11.484;2023-12-14T11:00:03;13.70;73.70
68766;DHT22;55756;45.582;11.484;2023-12-14T11:02:45;13.70;72.80
68766;DHT22;55756;45.582;11.484;2023-12-14T11:05:12;13.70;72.40
68766;DHT22;55756;45.582;11.484;2023-12-14T11:07:53;13.80;72.20
68766;DHT22;55756;45.582;11.484;2023-12-14T11:10:26;13.80;72.20
68766;DHT22;55756;45.582;11.484;2023-12-14T11:13:02;13.80;72.90
68766;DHT22;55756;45.582;11.484;2023-12-14T11:15:30;13.80;73.40
68766;DHT22;55756;45.582;11.484;2023-12-14T11:23:36;13.80;73.50
68766;DHT22;55756;45.582;11.484;2023-12-14T11:26:05;13.80;73.50
68766;DHT22;55756;45.582;11.484;2023-12-14T11:28:32;13.80;73.60
68766;DHT22;55756;45.582;11.484;2023-12-14T11:31:00;13.90;73.30
68766;DHT22;55756;45.582;11.484;2023-12-14T11:33:26;14.00;73.20
68766;DHT22;55756;45.582;11.484;2023-12-14T11:35:54;14.00;73.30
68766;DHT22;55756;45.582;11.484;2023-12-14T11:38:21;14.00;74.30
68766;DHT22;55756;45.582;11.484;2023-12-14T11:40:49;14.10;74.10
68766;DHT22;55756;45.582;11.484;2023-12-14T11:43:15;14.10;73.80
68766;DHT22;55756;45.582;11.484;2023-12-14T11:45:42;14.10;73.80
68766;DHT22;55756;45.582;11.484;2023-12-14T11:48:10;14.20;73.80
68766;DHT22;55756;45.582;11.484;2023-12-14T11:50:40;14.20;73.80
68766;DHT22;55756;45.582;11.484;2023-12-14T11:53:07;14.20;74.10
68766;DHT22;55756;45.582;11.484;2023-12-14T11:55:37;14.20;73.90
68766;DHT22;55756;45.582;11.484;2023-12-14T11:58:06;14.30;73.40
68766;DHT22;55756;45.582;11.484;2023-12-14T12:00:33;14.30;73.10
68766;DHT22;55756;45.582;11.484;2023-12-14T12:03:18;14.40;72.60
68766;DHT22;55756;45.582;11.484;2023-12-14T12:05:49;14.40;72.40
68766;DHT22;55756;45.582;11.484;2023-12-14T12:08:18;14.40;72.20
68766;DHT22;55756;45.582;11.484;2023-12-14T12:10:47;14.50;72.00
68766;DHT22;55756;45.582;11.484;2023-12-14T12:13:15;14.50;71.90
68766;DHT22;55756;45.582;11.484;2023-12-14T12:15:41;14.50;71.90
68766;DHT22;55756;45.582;11.484;2023-12-14T12:18:09;14.50;71.50
68766;DHT22;55756;45.582;11.484;2023-12-14T12:20:35;14.50;71.00
68766;DHT22;55756;45.582;11.484;2023-12-14T12:23:01;14.50;71.00
68766;DHT22;55756;45.582;11.484;2023-12-14T12:25:27;14.60;70.90
68766;DHT22;55756;45.582;11.484;2023-12-14T12:27:54;14.60;70.90
68766;DHT22;55756;45.582;11.484;2023-12-14T12:30:21;14.60;70.80
68766;DHT22;55756;45.582;11.484;2023-12-14T12:32:47;14.60;70.60
68766;DHT22;55756;45.582;11.484;2023-12-14T12:35:13;14.60;70.80
68766;DHT22;55756;45.582;11.484;2023-12-14T12:37:39;14.60;70.70
68766;DHT22;55756;45.582;11.484;2023-12-14T12:40:08;14.60;70.70
68766;DHT22;55756;45.582;11.484;2023-12-14T12:42:34;14.60;70.30
68766;DHT22;55756;45.582;11.484;2023-12-14T12:44:59;14.60;70.00
68766;DHT22;55756;45.582;11.484;2023-12-14T12:47:26;14.60;70.00
68766;DHT22;55756;45.582;11.484;2023-12-14T12:49:53;14.70;70.00
68766;DHT22;55756;45.582;11.484;2023-12-14T12:52:19;14.70;71.10
68766;DHT22;55756;45.582;11.484;2023-12-14T12:54:44;14.70;70.70
68766;DHT22;55756;45.582;11.484;2023-12-14T12:57:10;14.70;70.50
68766;DHT22;55756;45.582;11.484;2023-12-14T12:59:36;14.70;70.10
68766;DHT22;55756;45.582;11.484;2023-12-14T13:02:02;14.70;69.40
68766;DHT22;55756;45.582;11.484;2023-12-14T13:04:28;14.70;69.10
68766;DHT22;55756;45.582;11.484;2023-12-14T13:06:56;14.70;69.20
68766;DHT22;55756;45.582;11.484;2023-12-14T13:09:22;14.70;69.90
68766;DHT22;55756;45.582;11.484;2023-12-14T13:11:48;14.70;70.80
68766;DHT22;55756;45.582;11.484;2023-12-14T13:14:16;14.80;70.70
68766;DHT22;55756;45.582;11.484;2023-12-14T13:16:42;14.80;70.90
68766;DHT22;55756;45.582;11.484;2023-12-14T13:19:08;14.80;70.90
68766;DHT22;55756;45.582;11.484;2023-12-14T13:21:35;14.80;70.90
68766;DHT22;55756;45.582;11.484;2023-12-14T13:24:01;14.80;70.80
68766;DHT22;55756;45.582;11.484;2023-12-14T13:26:27;14.80;70.50
68766;DHT22;55756;45.582;11.484;2023-12-14T13:28:53;14.80;70.20
68766;DHT22;55756;45.582;11.484;2023-12-14T13:31:19;14.80;69.80
68766;DHT22;55756;45.582;11.484;2023-12-14T13:33:48;14.80;69.70
68766;DHT22;55756;45.582;11.484;2023-12-14T13:36:15;14.80;69.40
68766;DHT22;55756;45.582;11.484;2023-12-14T13:38:42;14.80;69.20
68766;DHT22;55756;45.582;11.484;2023-12-14T13:41:11;14.80;69.00
68766;DHT22;55756;45.582;11.484;2023-12-14T14:48:18;14.40;70.50
68766;DHT22;55756;45.582;11.484;2023-12-14T14:50:44;14.30;70.20
68766;DHT22;55756;45.582;11.484;2023-12-14T14:53:12;14.30;70.10
68766;DHT22;55756;45.582;11.484;2023-12-14T14:55:38;14.30;71.20
68766;DHT22;55756;45.582;11.484;2023-12-14T14:58:04;14.30;70.00
68766;DHT22;55756;45.582;11.484;2023-12-14T15:00:29;14.30;70.50
68766;DHT22;55756;45.582;11.484;2023-12-14T15:02:56;14.30;71.40
68766;DHT22;55756;45.582;11.484;2023-12-14T15:05:22;14.30;71.50
68766;DHT22;55756;45.582;11.484;2023-12-14T15:07:48;14.30;71.10
68766;DHT22;55756;45.582;11.484;2023-12-14T15:10:14;14.30;71.50
68766;DHT22;55756;45.582;11.484;2023-12-14T15:12:39;14.20;71.60
68766;DHT22;55756;45.582;11.484;2023-12-14T15:15:05;14.20;70.60
68766;DHT22;55756;45.582;11.484;2023-12-14T15:17:31;14.20;70.30
68766;DHT22;55756;45.582;11.484;2023-12-14T15:19:57;14.20;70.10
68766;DHT22;55756;45.582;11.484;2023-12-14T15:22:23;14.20;70.60
68766;DHT22;55756;45.582;11.484;2023-12-14T15:24:48;14.20;70.60
68766;DHT22;55756;45.582;11.484;2023-12-14T15:27:14;14.20;70.20
68766;DHT22;55756;45.582;11.484;2023-12-14T15:29:41;14.10;70.10
68766;DHT22;55756;45.582;11.484;2023-12-14T15:32:06;14.10;70.50
68766;DHT22;55756;45.582;11.484;2023-12-14T15:34:33;14.10;69.90
68766;DHT22;55756;45.582;11.484;2023-12-14T15:36:59;14.10;70.10
68766;DHT22;55756;45.582;11.484;2023-12-14T15:39:24;14.10;70.10
68766;DHT22;55756;45.582;11.484;2023-12-14T15:41:50;14.00;69.60
68766;DHT22;55756;45.582;11.484;2023-12-14T15:44:16;14.00;69.90
68766;DHT22;55756;45.582;11.484;2023-12-14T15:46:47;14.00;69.80
68766;DHT22;55756;45.582;11.484;2023-12-14T15:49:27;14.10;69.80
68766;DHT22;55756;45.582;11.484;2023-12-14T15:52:02;14.00;70.70
68766;DHT22;55756;45.582;11.484;2023-12-14T15:54:48;14.00;70.70
68766;DHT22;55756;45.582;11.484;2023-12-14T15:57:20;14.00;70.00
68766;DHT22;55756;45.582;11.484;2023-12-14T16:00:34;14.00;69.70
68766;DHT22;55756;45.582;11.484;2023-12-14T16:03:08;14.00;69.50
68766;DHT22;55756;45.582;11.484;2023-12-14T16:05:36;13.90;67.90
68766;DHT22;55756;45.582;11.484;2023-12-14T16:08:15;13.70;70.00
68766;DHT22;55756;45.582;11.484;2023-12-14T16:10:46;13.70;69.80
68766;DHT22;55756;45.582;11.484;2023-12-14T16:13:16;13.80;69.40
68766;DHT22;55756;45.582;11.484;2023-12-14T16:15:43;13.80;69.20
68766;DHT22;55756;45.582;11.484;2023-12-14T16:18:12;13.80;69.30
68766;DHT22;55756;45.582;11.484;2023-12-14T16:20:45;13.80;69.70
68766;DHT22;55756;45.582;11.484;2023-12-14T16:23:13;13.80;70.20
68766;DHT22;55756;45.582;11.484;2023-12-14T16:25:50;13.80;70.90
68766;DHT22;55756;45.582;11.484;2023-12-14T16:28:16;13.80;70.70